Time;durP1;ratioP1;P1;durP2;ratioP2;P2;SDS_P1;SDS_P2;PMS_P1;PMS_P2;Temp;Humidity;BMP_temperature;BMP_pressure;BME280_temperature;BME280_humidity;BME280_pressure;Samples;Min_cycle;Max_cycle;Signal;HPM_P1;HPM_P2
2023/06/25 00:02:07;;;;;;;9.85;6.60;;;21.70;62.20;;;;;;5070522;28;20322;-80
2023/06/25 00:04:35;;;;;;;10.65;6.32;;;21.70;62.20;;;;;;5080930;28;20037;-80
2023/06/25 00:07:03;;;;;;;10.35;6.63;;;21.60;62.40;;;;;;5076111;28;20052;-80
2023/06/25 00:09:30;;;;;;;10.18;6.45;;;21.60;62.50;;;;;;5067694;28;20050;-80
2023/06/25 00:11:57;;;;;;;11.63;7.50;;;21.50;62.50;;;;;;5058613;28;20132;-80
2023/06/25 00:14:24;;;;;;;9.30;6.60;;;21.50;62.60;;;;;;5069638;28;20254;-80
2023/06/25 00:16:57;;;;;;;11.23;7.50;;;21.50;62.60;;;;;;5069598;28;20053;-80
2023/06/25 00:19:25;;;;;;;10.15;6.20;;;21.50;62.50;;;;;;5070059;28;20067;-80
2023/06/25 00:21:53;;;;;;;10.68;6.78;;;21.40;62.60;;;;;;5069454;28;20045;-80
2023/06/25 00:24:20;;;;;;;10.17;6.87;;;21.40;62.70;;;;;;5074136;28;20132;-80
2023/06/25 00:26:47;;;;;;;9.07;6.43;;;21.40;62.60;;;;;;5053581;28;20287;-80
2023/06/25 00:29:14;;;;;;;11.48;6.93;;;21.30;62.70;;;;;;5057395;28;20049;-80
2023/06/25 00:31:42;;;;;;;10.18;6.43;;;21.30;62.80;;;;;;5052139;28;20048;-80
2023/06/25 00:34:09;;;;;;;11.20;6.75;;;21.20;63.00;;;;;;5077749;28;20588;-80
2023/06/25 00:36:40;;;;;;;9.50;6.40;;;21.10;63.10;;;;;;5048730;28;20061;-80
2023/06/25 00:39:08;;;;;;;9.50;6.65;;;21.10;62.90;;;;;;5051068;28;20240;-80
2023/06/25 00:41:38;;;;;;;9.60;6.35;;;21.10;63.00;;;;;;5052706;28;20045;-80
2023/06/25 00:44:06;;;;;;;10.18;6.90;;;21.10;63.00;;;;;;5073073;28;20075;-80
2023/06/25 00:46:34;;;;;;;13.25;5.93;;;21.00;63.20;;;;;;5051589;28;20041;-80
2023/06/25 00:49:05;;;;;;;13.23;6.70;;;21.00;63.20;;;;;;5077081;28;20059;-80
2023/06/25 00:51:35;;;;;;;13.23;6.82;;;21.00;63.30;;;;;;5052852;28;20828;-80
2023/06/25 00:54:04;;;;;;;13.55;6.45;;;21.00;63.40;;;;;;5061246;28;20126;-80
2023/06/25 00:56:33;;;;;;;10.38;6.60;;;20.90;63.40;;;;;;5055763;28;20087;-80
2023/06/25 00:59:01;;;;;;;9.98;5.80;;;20.90;63.40;;;;;;5036865;28;20049;-80
2023/06/25 01:01:36;;;;;;;8.60;5.97;;;20.90;63.40;;;;;;5064403;28;20049;-80
2023/06/25 01:04:09;;;;;;;10.02;6.20;;;20.80;63.50;;;;;;5068330;28;20378;-80
2023/06/25 01:06:41;;;;;;;12.00;6.45;;;20.80;63.50;;;;;;5070889;28;20704;-80
2023/06/25 01:09:11;;;;;;;10.65;6.22;;;20.80;63.60;;;;;;5059983;28;20601;-80
2023/06/25 01:11:40;;;;;;;10.32;6.28;;;20.70;63.50;;;;;;5064263;28;20075;-80
2023/06/25 01:14:09;;;;;;;10.70;6.37;;;20.70;63.90;;;;;;5059784;28;20072;-81
2023/06/25 01:16:36;;;;;;;11.15;6.55;;;20.70;63.90;;;;;;5068935;28;20266;-80
2023/06/25 01:19:03;;;;;;;11.18;7.03;;;20.70;64.00;;;;;;5064809;28;20049;-80
2023/06/25 01:21:31;;;;;;;11.35;7.20;;;20.60;64.30;;;;;;5078803;28;20415;-80
2023/06/25 01:24:00;;;;;;;13.35;7.50;;;20.60;64.70;;;;;;5075288;28;20564;-80
2023/06/25 01:26:27;;;;;;;12.70;7.33;;;20.50;64.80;;;;;;5059966;28;20483;-80
2023/06/25 01:28:55;;;;;;;11.82;7.07;;;20.50;65.10;;;;;;5074178;28;20287;-80
2023/06/25 01:31:24;;;;;;;10.68;7.00;;;20.40;65.20;;;;;;5054195;28;20053;-80
2023/06/25 01:33:51;;;;;;;10.68;6.80;;;20.30;65.30;;;;;;5068342;28;20077;-80
2023/06/25 01:36:19;;;;;;;9.90;6.68;;;20.30;65.40;;;;;;5051742;28;20055;-80
2023/06/25 01:38:46;;;;;;;11.63;6.53;;;20.30;65.40;;;;;;5051035;28;20155;-80
2023/06/25 01:41:15;;;;;;;12.95;7.10;;;20.30;65.50;;;;;;5051867;28;20256;-80
2023/06/25 01:43:42;;;;;;;12.77;7.18;;;20.30;65.60;;;;;;5051579;28;20045;-80
2023/06/25 01:46:10;;;;;;;11.40;7.68;;;20.20;65.70;;;;;;5073354;28;20055;-80
2023/06/25 01:48:37;;;;;;;12.70;7.80;;;20.10;65.80;;;;;;5061480;28;20568;-80
2023/06/25 01:51:04;;;;;;;11.63;7.60;;;20.10;66.00;;;;;;5061730;28;20076;-80
2023/06/25 01:53:31;;;;;;;13.15;7.43;;;20.10;66.00;;;;;;5051118;28;20663;-80
2023/06/25 01:55:58;;;;;;;14.40;7.53;;;20.00;65.90;;;;;;5050698;28;20095;-80
2023/06/25 01:58:26;;;;;;;11.73;7.82;;;20.00;66.00;;;;;;5051237;28;20077;-80
2023/06/25 02:00:53;;;;;;;14.30;7.47;;;20.00;66.10;;;;;;5051285;28;20505;-80
2023/06/25 02:03:20;;;;;;;14.07;7.30;;;20.00;66.20;;;;;;5067926;28;20056;-80
2023/06/25 02:05:47;;;;;;;11.52;7.10;;;20.00;66.00;;;;;;5068018;28;20751;-80
2023/06/25 02:08:14;;;;;;;12.40;7.30;;;20.00;65.90;;;;;;5075883;28;20044;-80
2023/06/25 02:10:41;;;;;;;11.68;6.85;;;20.00;66.00;;;;;;5046363;28;20060;-80
2023/06/25 02:13:08;;;;;;;13.23;7.82;;;20.00;66.10;;;;;;5063381;28;20068;-80
2023/06/25 02:15:37;;;;;;;12.20;8.17;;;19.90;66.20;;;;;;5030974;28;20054;-80
2023/06/25 02:18:04;;;;;;;12.23;7.47;;;19.90;66.40;;;;;;5047062;28;20299;-80
2023/06/25 02:20:31;;;;;;;14.10;8.07;;;19.80;66.50;;;;;;5041204;28;20061;-80
2023/06/25 02:22:57;;;;;;;12.65;7.35;;;19.70;66.70;;;;;;5050486;28;20139;-80
2023/06/25 02:25:24;;;;;;;12.15;7.70;;;19.70;66.60;;;;;;5073772;28;20053;-80
2023/06/25 02:27:51;;;;;;;11.17;7.47;;;19.70;66.70;;;;;;5058503;28;20548;-80
2023/06/25 02:30:18;;;;;;;12.40;7.20;;;19.70;66.60;;;;;;5058618;28;20309;-80
2023/06/25 02:32:47;;;;;;;11.98;7.55;;;19.70;66.60;;;;;;5050201;28;20041;-80
2023/06/25 02:35:13;;;;;;;11.80;7.38;;;19.70;66.80;;;;;;5057951;28;20152;-80
2023/06/25 02:37:40;;;;;;;12.10;6.97;;;19.70;66.80;;;;;;5043131;28;20049;-80
2023/06/25 02:40:10;;;;;;;13.60;7.33;;;19.70;66.60;;;;;;5050391;28;20499;-80
2023/06/25 02:42:37;;;;;;;11.45;7.32;;;19.70;66.50;;;;;;5050061;28;20280;-79
2023/06/25 02:45:05;;;;;;;13.70;7.60;;;19.60;66.70;;;;;;5067056;28;20442;-80
2023/06/25 02:47:31;;;;;;;10.23;6.50;;;19.60;66.80;;;;;;5070665;28;20063;-77
2023/06/25 02:50:00;;;;;;;10.52;6.85;;;19.60;66.90;;;;;;5074329;28;20088;-77
2023/06/25 02:52:30;;;;;;;12.10;6.73;;;19.50;67.00;;;;;;5072099;28;20107;-77
2023/06/25 02:54:57;;;;;;;10.15;6.70;;;19.50;67.00;;;;;;5049862;28;20272;-77
2023/06/25 02:57:25;;;;;;;10.77;5.97;;;19.50;67.20;;;;;;5066496;28;20045;-77
2023/06/25 02:59:53;;;;;;;10.50;6.72;;;19.50;67.30;;;;;;5067787;28;20128;-77
2023/06/25 03:02:20;;;;;;;10.43;6.68;;;19.50;67.30;;;;;;5057853;28;20076;-77
2023/06/25 03:04:47;;;;;;;11.83;6.90;;;19.50;67.10;;;;;;5047327;28;20059;-77
2023/06/25 03:07:16;;;;;;;12.00;6.93;;;19.50;67.20;;;;;;5050754;28;20253;-78
2023/06/25 03:09:43;;;;;;;11.88;7.18;;;19.50;67.30;;;;;;5061515;28;20052;-77
2023/06/25 03:12:11;;;;;;;11.55;6.97;;;19.40;67.40;;;;;;5059082;28;20048;-77
2023/06/25 03:14:38;;;;;;;10.68;6.80;;;19.40;67.60;;;;;;5082319;28;20457;-77
2023/06/25 03:17:06;;;;;;;11.07;6.77;;;19.40;67.70;;;;;;5049972;28;20052;-77
2023/06/25 03:19:33;;;;;;;11.13;6.60;;;19.30;67.90;;;;;;5052040;28;20303;-77
2023/06/25 03:22:01;;;;;;;11.25;6.80;;;19.30;67.80;;;;;;5043698;28;20064;-77
2023/06/25 03:24:32;;;;;;;10.95;6.32;;;19.30;67.80;;;;;;5049840;28;20064;-77
2023/06/25 03:27:00;;;;;;;12.48;6.50;;;19.30;67.80;;;;;;5071172;28;20041;-77
2023/06/25 03:29:27;;;;;;;12.33;6.40;;;19.30;67.80;;;;;;5051987;28;20250;-77
2023/06/25 03:31:54;;;;;;;12.07;7.45;;;19.30;67.80;;;;;;5053005;28;20751;-77
2023/06/25 03:34:25;;;;;;;11.95;6.88;;;19.20;67.90;;;;;;5058181;28;20495;-77
2023/06/25 03:36:54;;;;;;;14.30;7.95;;;19.20;68.00;;;;;;5047055;28;20045;-77
2023/06/25 03:39:22;;;;;;;12.38;6.93;;;19.20;68.20;;;;;;5058498;28;20053;-77
2023/06/25 03:41:50;;;;;;;12.67;7.43;;;19.10;68.10;;;;;;5052846;28;20123;-77
2023/06/25 03:44:17;;;;;;;11.45;7.00;;;19.10;68.30;;;;;;5053335;28;20287;-77
2023/06/25 03:46:44;;;;;;;12.95;7.55;;;19.10;68.30;;;;;;5070111;28;20470;-77
2023/06/25 03:49:11;;;;;;;11.95;7.07;;;19.10;68.40;;;;;;5053395;28;20496;-77
2023/06/25 03:51:38;;;;;;;13.18;8.32;;;19.10;68.40;;;;;;5059704;28;20045;-77
2023/06/25 03:54:07;;;;;;;12.40;7.80;;;19.10;68.50;;;;;;5071879;28;20052;-77
2023/06/25 03:56:36;;;;;;;12.82;7.82;;;19.10;68.60;;;;;;5076653;28;20768;-77
2023/06/25 03:59:04;;;;;;;12.88;7.55;;;19.10;68.70;;;;;;5060510;28;20053;-77
2023/06/25 04:01:33;;;;;;;12.65;7.43;;;19.10;68.70;;;;;;5049908;28;20049;-77
2023/06/25 04:04:00;;;;;;;12.38;7.40;;;19.10;68.70;;;;;;5057714;28;21043;-77
2023/06/25 04:06:26;;;;;;;12.63;7.93;;;19.10;68.80;;;;;;5049323;28;20091;-77
2023/06/25 04:08:53;;;;;;;11.80;8.10;;;19.10;68.90;;;;;;5070084;28;20769;-78
2023/06/25 04:11:20;;;;;;;12.60;7.40;;;19.00;69.00;;;;;;5070244;28;20045;-77
2023/06/25 04:13:47;;;;;;;12.82;8.10;;;19.00;69.20;;;;;;5055021;28;20053;-77
2023/06/25 04:16:16;;;;;;;14.40;8.23;;;19.00;69.10;;;;;;5061520;28;20053;-78
2023/06/25 04:18:43;;;;;;;12.80;8.47;;;19.00;69.30;;;;;;5047898;28;20694;-77
2023/06/25 04:21:10;;;;;;;15.73;8.68;;;19.00;69.40;;;;;;5069281;28;20307;-78
2023/06/25 04:23:37;;;;;;;15.98;9.80;;;19.00;69.50;;;;;;5052670;28;20058;-77
2023/06/25 04:26:05;;;;;;;15.77;9.65;;;19.00;69.60;;;;;;5052768;28;20578;-77
2023/06/25 04:28:31;;;;;;;16.77;9.48;;;19.00;69.80;;;;;;5094292;28;20495;-77
2023/06/25 04:30:58;;;;;;;15.70;9.90;;;19.00;69.80;;;;;;5058484;28;20507;-77
2023/06/25 04:33:27;;;;;;;17.02;9.70;;;19.00;70.10;;;;;;5058800;28;20846;-78
2023/06/25 04:35:54;;;;;;;16.08;10.25;;;19.00;70.20;;;;;;5055352;28;20059;-78
2023/06/25 04:38:23;;;;;;;17.30;10.23;;;19.00;70.10;;;;;;5052717;28;20052;-77
2023/06/25 04:40:50;;;;;;;14.55;9.23;;;19.00;70.30;;;;;;5050337;28;20040;-78
2023/06/25 04:43:17;;;;;;;15.33;9.73;;;19.00;70.20;;;;;;5052780;28;20041;-78
2023/06/25 04:45:44;;;;;;;18.23;10.38;;;19.00;70.30;;;;;;5035425;28;20256;-78
2023/06/25 04:48:11;;;;;;;16.15;9.32;;;19.00;70.80;;;;;;5067540;28;20466;-78
2023/06/25 04:50:39;;;;;;;18.08;10.82;;;19.00;71.00;;;;;;5051815;28;20045;-78
2023/06/25 04:53:06;;;;;;;17.63;11.13;;;19.00;71.40;;;;;;5073924;28;20424;-78
2023/06/25 04:55:33;;;;;;;15.93;9.60;;;19.00;71.60;;;;;;5069831;28;20049;-78
2023/06/25 04:58:00;;;;;;;18.55;11.85;;;19.00;71.60;;;;;;5051927;28;20249;-78
2023/06/25 05:00:27;;;;;;;13.65;8.77;;;19.00;71.40;;;;;;5065862;28;20175;-78
2023/06/25 05:02:54;;;;;;;17.77;11.10;;;19.00;71.60;;;;;;5062045;28;20056;-78
2023/06/25 05:05:21;;;;;;;18.10;11.55;;;19.10;71.70;;;;;;5066792;28;20502;-78
2023/06/25 05:07:49;;;;;;;17.33;10.83;;;19.10;72.30;;;;;;5065145;28;20061;-78
2023/06/25 05:10:16;;;;;;;19.10;11.45;;;19.10;72.10;;;;;;5067602;28;20640;-77
2023/06/25 05:12:43;;;;;;;17.27;10.73;;;19.10;72.40;;;;;;5069355;28;20049;-78
2023/06/25 05:15:11;;;;;;;18.52;10.73;;;19.10;72.80;;;;;;5074814;28;20198;-78
2023/06/25 05:17:38;;;;;;;14.73;9.00;;;19.10;73.00;;;;;;5059178;28;20059;-78
2023/06/25 05:20:06;;;;;;;16.93;10.33;;;19.10;73.10;;;;;;5072890;28;20052;-78
2023/06/25 05:22:33;;;;;;;12.98;9.18;;;19.10;73.20;;;;;;5067246;28;20268;-78
2023/06/25 05:25:01;;;;;;;14.45;9.07;;;19.10;73.50;;;;;;5070305;28;20055;-78
2023/06/25 05:27:28;;;;;;;17.25;10.27;;;19.10;73.50;;;;;;5053049;28;20554;-78
2023/06/25 05:29:55;;;;;;;16.50;10.20;;;19.20;73.60;;;;;;5070779;28;20498;-78
2023/06/25 05:32:22;;;;;;;16.07;9.37;;;19.20;73.80;;;;;;5065402;28;20115;-79
2023/06/25 05:34:49;;;;;;;15.60;9.30;;;19.20;74.10;;;;;;5070280;28;20249;-78
2023/06/25 05:37:16;;;;;;;15.55;9.15;;;19.20;74.10;;;;;;5072782;28;20044;-79
2023/06/25 05:39:42;;;;;;;15.82;9.98;;;19.30;74.10;;;;;;5054988;28;20112;-79
2023/06/25 05:42:11;;;;;;;16.33;10.05;;;19.30;74.30;;;;;;5050340;28;20475;-78
2023/06/25 05:44:38;;;;;;;18.93;9.57;;;19.30;74.20;;;;;;5062231;28;20057;-78
2023/06/25 05:47:05;;;;;;;16.73;9.90;;;19.30;74.30;;;;;;5091323;28;20256;-75
2023/06/25 05:49:32;;;;;;;16.77;10.23;;;19.40;74.30;;;;;;5067316;28;20053;-79
2023/06/25 05:51:59;;;;;;;16.13;10.38;;;19.40;74.30;;;;;;5064300;28;20131;-79
2023/06/25 05:54:26;;;;;;;15.38;9.93;;;19.50;74.10;;;;;;5063063;28;20053;-79
2023/06/25 05:56:54;;;;;;;15.80;9.63;;;19.50;74.40;;;;;;5069987;28;20059;-79
2023/06/25 05:59:23;;;;;;;16.77;10.55;;;19.50;74.30;;;;;;5064420;28;20355;-79
2023/06/25 06:01:50;;;;;;;14.50;9.30;;;19.50;74.50;;;;;;5065297;28;20075;-78
2023/06/25 06:04:17;;;;;;;16.15;9.80;;;19.60;74.60;;;;;;5065889;28;20681;-78
2023/06/25 06:06:44;;;;;;;15.73;9.88;;;19.60;74.40;;;;;;5060751;28;20053;-79
2023/06/25 06:09:11;;;;;;;15.40;9.77;;;19.70;74.10;;;;;;5067397;28;20103;-78
2023/06/25 06:11:37;;;;;;;16.08;10.27;;;19.70;74.10;;;;;;5065516;28;20278;-78
2023/06/25 06:14:05;;;;;;;13.85;9.40;;;19.70;74.00;;;;;;5069934;28;20053;-77
2023/06/25 06:16:33;;;;;;;12.15;7.82;;;19.80;73.90;;;;;;5074315;28;20052;-77
2023/06/25 06:19:01;;;;;;;17.08;11.45;;;19.90;73.90;;;;;;5080577;28;20110;-76
2023/06/25 06:21:28;;;;;;;17.20;10.97;;;19.90;73.90;;;;;;5072283;28;20549;-75
2023/06/25 06:23:54;;;;;;;17.10;11.57;;;19.90;74.00;;;;;;5072903;28;20817;-76
2023/06/25 06:26:21;;;;;;;15.57;10.77;;;20.00;73.90;;;;;;5066696;28;21017;-78
2023/06/25 06:28:48;;;;;;;17.52;10.75;;;20.00;74.00;;;;;;5068041;28;20180;-78
2023/06/25 06:31:16;;;;;;;17.20;10.00;;;20.00;73.90;;;;;;5066365;28;20064;-79
2023/06/25 06:33:45;;;;;;;17.67;10.23;;;20.10;74.00;;;;;;5042418;28;20068;-77
2023/06/25 06:36:12;;;;;;;18.35;11.57;;;20.10;73.90;;;;;;5069349;28;20603;-76
2023/06/25 06:38:39;;;;;;;18.08;12.20;;;20.20;74.00;;;;;;5064385;28;20049;-75
2023/06/25 06:41:06;;;;;;;19.30;11.35;;;20.30;73.90;;;;;;5067703;28;20052;-76
2023/06/25 06:43:33;;;;;;;16.70;12.30;;;20.30;74.00;;;;;;5066964;28;20658;-76
2023/06/25 06:46:00;;;;;;;16.27;12.40;;;20.30;74.00;;;;;;5069284;28;20060;-78
2023/06/25 06:48:27;;;;;;;15.98;10.32;;;20.50;74.10;;;;;;5047573;28;20256;-78
2023/06/25 06:50:55;;;;;;;21.48;14.82;;;20.50;73.90;;;;;;5047740;28;20076;-77
2023/06/25 06:53:22;;;;;;;17.80;13.60;;;20.50;73.90;;;;;;5071883;28;20048;-77
2023/06/25 06:55:49;;;;;;;18.90;12.48;;;20.60;73.70;;;;;;5072276;28;20463;-76
2023/06/25 06:58:16;;;;;;;18.87;13.17;;;20.60;73.60;;;;;;5078959;28;20055;-76
2023/06/25 07:00:43;;;;;;;18.50;12.93;;;20.70;73.50;;;;;;5072325;28;20284;-76
2023/06/25 07:03:09;;;;;;;16.70;13.25;;;20.80;73.40;;;;;;5052424;28;20511;-75
2023/06/25 07:05:37;;;;;;;17.52;12.57;;;20.80;73.20;;;;;;5049757;28;20511;-76
2023/06/25 07:08:05;;;;;;;16.67;12.32;;;20.90;73.10;;;;;;5066704;28;20049;-77
2023/06/25 07:10:32;;;;;;;17.80;13.23;;;21.00;73.20;;;;;;5065656;28;20044;-77
2023/06/25 07:12:59;;;;;;;16.85;12.80;;;21.10;73.10;;;;;;5066618;28;20322;-78
2023/06/25 07:15:26;;;;;;;16.98;12.38;;;21.10;73.00;;;;;;5050205;28;20052;-76
2023/06/25 07:17:53;;;;;;;14.73;10.98;;;21.20;72.80;;;;;;5074212;28;20049;-76
2023/06/25 07:20:20;;;;;;;17.85;13.68;;;21.30;72.80;;;;;;5068109;28;20064;-77
2023/06/25 07:22:47;;;;;;;18.47;13.40;;;21.30;72.80;;;;;;5068702;28;20061;-75
2023/06/25 07:25:16;;;;;;;16.30;11.93;;;21.40;72.40;;;;;;5099995;28;20267;-76
2023/06/25 07:27:43;;;;;;;16.48;13.05;;;21.50;72.20;;;;;;5064921;28;20045;-77
2023/06/25 07:30:11;;;;;;;19.95;14.10;;;21.50;72.10;;;;;;5074329;28;20503;-75
2023/06/25 07:32:38;;;;;;;17.58;13.02;;;21.60;71.90;;;;;;5069877;28;20085;-79
2023/06/25 07:35:06;;;;;;;16.50;13.43;;;21.70;71.70;;;;;;5066169;28;20072;-83
2023/06/25 07:37:33;;;;;;;16.33;12.45;;;21.80;71.60;;;;;;5065245;28;20260;-81
2023/06/25 07:40:00;;;;;;;18.73;13.73;;;21.90;71.40;;;;;;5059031;28;20045;-80
2023/06/25 07:42:28;;;;;;;15.75;13.13;;;21.90;71.40;;;;;;5065740;28;20063;-82
2023/06/25 07:44:55;;;;;;;17.85;13.63;;;22.00;71.10;;;;;;5065015;28;20053;-80
2023/06/25 07:47:22;;;;;;;17.10;13.50;;;22.10;71.00;;;;;;5052842;28;20246;-81
2023/06/25 07:49:49;;;;;;;16.60;13.05;;;22.20;71.00;;;;;;5072238;28;20280;-82
2023/06/25 07:52:16;;;;;;;17.33;13.13;;;22.20;71.20;;;;;;5064444;28;20045;-81
2023/06/25 07:54:43;;;;;;;16.35;13.13;;;22.30;71.20;;;;;;5031735;28;20084;-81
2023/06/25 07:57:10;;;;;;;16.70;13.50;;;22.40;71.20;;;;;;5072410;28;20045;-82
2023/06/25 07:59:38;;;;;;;15.93;12.87;;;22.50;71.20;;;;;;5070213;28;20049;-81
2023/06/25 08:02:05;;;;;;;17.02;13.27;;;22.50;71.10;;;;;;5069472;28;20240;-81
2023/06/25 08:04:32;;;;;;;16.25;12.70;;;22.60;70.90;;;;;;5067729;28;20052;-82
2023/06/25 08:06:59;;;;;;;13.80;12.02;;;22.70;70.80;;;;;;5065120;28;20553;-80
2023/06/25 08:09:26;;;;;;;15.07;12.63;;;22.80;70.80;;;;;;5092618;28;20128;-81
2023/06/25 08:11:53;;;;;;;16.37;13.20;;;22.80;70.50;;;;;;5077860;28;20119;-82
2023/06/25 08:14:20;;;;;;;15.90;13.98;;;22.90;70.30;;;;;;5064603;28;20268;-82
2023/06/25 08:16:48;;;;;;;13.82;10.60;;;23.00;70.10;;;;;;5064695;28;20060;-81
2023/06/25 08:19:15;;;;;;;15.55;13.30;;;23.10;69.70;;;;;;5081854;28;20056;-82
2023/06/25 08:21:42;;;;;;;13.38;10.75;;;23.20;69.10;;;;;;5075024;28;20053;-82
2023/06/25 08:24:09;;;;;;;11.90;8.83;;;23.20;68.50;;;;;;5051607;28;20045;-82
2023/06/25 08:26:36;;;;;;;13.88;10.63;;;23.30;67.90;;;;;;5053386;28;20268;-82
2023/06/25 08:29:04;;;;;;;13.98;10.25;;;23.30;67.20;;;;;;5068820;28;20041;-79
2023/06/25 08:31:31;;;;;;;13.60;10.52;;;23.40;66.50;;;;;;5072097;28;20099;-81
2023/06/25 08:33:59;;;;;;;11.10;8.90;;;23.50;66.50;;;;;;5068236;28;20492;-81
2023/06/25 08:36:26;;;;;;;12.80;9.67;;;23.60;65.60;;;;;;5070136;28;20132;-78
2023/06/25 08:38:53;;;;;;;9.93;7.80;;;23.60;65.00;;;;;;5066865;28;20308;-79
2023/06/25 08:41:20;;;;;;;13.30;9.55;;;23.70;63.30;;;;;;5098730;27;20664;-81
2023/06/25 08:43:47;;;;;;;10.02;7.82;;;23.80;62.70;;;;;;5074698;28;20053;-80
2023/06/25 08:46:15;;;;;;;11.30;8.55;;;23.80;62.70;;;;;;5073147;28;20570;-81
2023/06/25 08:48:44;;;;;;;9.93;6.93;;;23.90;62.70;;;;;;5069556;28;20041;-80
2023/06/25 08:51:18;;;;;;;12.40;8.02;;;24.00;63.00;;;;;;5050399;28;20355;-80
2023/06/25 08:53:45;;;;;;;10.52;6.70;;;24.00;63.10;;;;;;5052709;28;20129;-81
2023/06/25 08:56:14;;;;;;;9.35;6.90;;;24.10;62.70;;;;;;5055572;28;20542;-80
2023/06/25 08:58:41;;;;;;;8.60;6.03;;;24.20;62.20;;;;;;5078645;28;20053;-80
2023/06/25 09:01:08;;;;;;;8.70;5.50;;;24.30;61.60;;;;;;5067731;28;20131;-81
2023/06/25 09:03:35;;;;;;;8.02;5.25;;;24.40;60.20;;;;;;5069639;28;20311;-80
2023/06/25 09:06:04;;;;;;;10.10;6.88;;;24.40;59.90;;;;;;5071483;28;20128;-80
2023/06/25 09:08:32;;;;;;;9.18;6.57;;;24.50;59.50;;;;;;5053036;28;20084;-80
2023/06/25 09:10:59;;;;;;;8.07;4.97;;;24.60;59.10;;;;;;5052051;28;20048;-79
2023/06/25 09:13:28;;;;;;;9.03;5.70;;;24.70;58.80;;;;;;5097743;28;20192;-80
2023/06/25 09:16:02;;;;;;;8.45;5.30;;;24.70;58.30;;;;;;5078980;28;20852;-81
2023/06/25 09:18:29;;;;;;;9.35;4.75;;;24.80;57.80;;;;;;5076376;28;20080;-80
2023/06/25 09:21:00;;;;;;;7.85;5.10;;;24.80;57.40;;;;;;5071141;28;20044;-80
2023/06/25 09:23:27;;;;;;;7.05;4.00;;;24.90;57.30;;;;;;5058757;28;20053;-80
2023/06/25 09:25:56;;;;;;;8.63;4.90;;;25.00;55.40;;;;;;5073641;28;20055;-80
2023/06/25 09:28:22;;;;;;;7.32;4.55;;;25.00;55.00;;;;;;5076640;28;20287;-79
2023/06/25 09:30:50;;;;;;;7.72;4.90;;;25.00;54.30;;;;;;5074616;28;20049;-79
2023/06/25 09:33:17;;;;;;;7.43;4.63;;;25.00;54.10;;;;;;5075440;28;20076;-79
2023/06/25 09:35:44;;;;;;;11.88;5.38;;;25.10;53.70;;;;;;5067724;28;20144;-82
2023/06/25 09:38:11;;;;;;;9.40;4.97;;;25.20;52.30;;;;;;5066807;28;20051;-80
2023/06/25 09:40:37;;;;;;;7.90;4.85;;;25.30;51.90;;;;;;5070241;28;20258;-81
2023/06/25 09:43:07;;;;;;;8.43;4.32;;;25.30;51.60;;;;;;5072924;28;20368;-80
2023/06/25 09:45:35;;;;;;;8.45;5.20;;;25.40;52.20;;;;;;5067270;28;20139;-80
2023/06/25 09:48:05;;;;;;;7.13;4.45;;;25.40;52.70;;;;;;5076429;28;20050;-80
2023/06/25 09:50:36;;;;;;;7.00;3.90;;;25.50;52.50;;;;;;5048365;28;20132;-79
2023/06/25 09:53:07;;;;;;;7.55;4.03;;;25.60;52.60;;;;;;5067281;28;20279;-80
2023/06/25 09:55:36;;;;;;;6.80;4.25;;;25.60;52.20;;;;;;5047188;28;20533;-79
2023/06/25 09:58:04;;;;;;;7.70;4.28;;;25.70;51.80;;;;;;5069794;28;20590;-77
2023/06/25 10:00:34;;;;;;;9.40;4.70;;;25.80;50.90;;;;;;5050580;28;20537;-80
2023/06/25 10:03:02;;;;;;;8.33;4.37;;;25.80;50.00;;;;;;5068950;28;20049;-80
2023/06/25 10:05:30;;;;;;;7.63;4.47;;;26.00;50.10;;;;;;5067769;28;20570;-80
2023/06/25 10:07:58;;;;;;;9.48;4.60;;;26.00;49.60;;;;;;5071931;28;20045;-80
2023/06/25 10:10:27;;;;;;;8.10;4.30;;;26.10;49.00;;;;;;5068632;28;20063;-80
2023/06/25 10:12:55;;;;;;;7.05;4.25;;;26.10;50.10;;;;;;5073679;28;20053;-80
2023/06/25 10:15:29;;;;;;;7.90;4.70;;;26.20;50.40;;;;;;5067878;28;20049;-81
2023/06/25 10:17:58;;;;;;;9.30;5.18;;;26.30;50.70;;;;;;5066405;28;20276;-80
2023/06/25 10:20:28;;;;;;;7.70;4.65;;;26.40;50.00;;;;;;5068833;28;20578;-81
2023/06/25 10:23:09;;;;;;;8.75;4.65;;;26.40;49.70;;;;;;5068714;28;20059;-80
2023/06/25 10:25:36;;;;;;;9.00;4.93;;;26.50;48.50;;;;;;5074802;28;20045;-81
2023/06/25 10:28:05;;;;;;;10.37;4.70;;;26.50;47.20;;;;;;5046846;28;20144;-81
2023/06/25 10:30:46;;;;;;;9.43;5.07;;;26.60;47.70;;;;;;5096328;27;20272;-81
2023/06/25 10:33:16;;;;;;;9.68;5.32;;;26.70;46.60;;;;;;5070223;28;20678;-80
2023/06/25 10:35:43;;;;;;;8.73;5.10;;;26.70;45.80;;;;;;5052568;28;20048;-82
2023/06/25 10:38:10;;;;;;;9.32;5.60;;;26.70;44.90;;;;;;5071428;28;20049;-79
2023/06/25 10:40:39;;;;;;;9.67;5.30;;;26.80;45.00;;;;;;5069003;28;20056;-78
2023/06/25 10:43:06;;;;;;;8.15;4.60;;;26.80;44.40;;;;;;5095766;27;20730;-80
2023/06/25 10:45:34;;;;;;;7.57;4.75;;;26.80;45.50;;;;;;5067692;28;20136;-79
2023/06/25 10:48:05;;;;;;;6.57;4.13;;;26.90;45.30;;;;;;5064337;28;20051;-80
2023/06/25 10:50:34;;;;;;;9.35;4.50;;;26.90;46.00;;;;;;5066270;28;20057;-79
2023/06/25 10:53:02;;;;;;;7.87;3.97;;;27.00;45.70;;;;;;5051110;28;20134;-81
2023/06/25 10:55:29;;;;;;;8.70;4.30;;;27.10;45.70;;;;;;5069167;28;20806;-79
2023/06/25 10:57:56;;;;;;;8.48;4.60;;;27.20;44.80;;;;;;5074407;28;20049;-80
2023/06/25 11:00:24;;;;;;;9.10;4.20;;;27.20;44.90;;;;;;5070785;28;20050;-81
2023/06/25 11:02:52;;;;;;;8.18;4.68;;;27.30;45.30;;;;;;5062522;28;20052;-79
2023/06/25 11:05:19;;;;;;;8.07;4.40;;;27.40;45.40;;;;;;5076066;28;20563;-87
2023/06/25 11:07:53;;;;;;;8.00;4.28;;;27.50;45.30;;;;;;5070206;28;20929;-82
2023/06/25 11:10:22;;;;;;;6.80;4.43;;;27.50;44.80;;;;;;5047598;28;20703;-82
2023/06/25 11:12:50;;;;;;;7.32;4.70;;;27.60;44.40;;;;;;5066618;28;20055;-84
2023/06/25 11:15:18;;;;;;;7.40;4.50;;;27.70;44.00;;;;;;5049983;28;20132;-83
2023/06/25 11:17:45;;;;;;;6.60;3.90;;;27.80;44.00;;;;;;5065080;28;20053;-81
2023/06/25 11:20:12;;;;;;;7.25;4.20;;;27.80;44.60;;;;;;5064150;28;20245;-83
2023/06/25 11:22:41;;;;;;;6.97;4.70;;;27.90;44.50;;;;;;5048402;28;20050;-81
2023/06/25 11:25:11;;;;;;;6.05;4.00;;;27.90;44.30;;;;;;5072987;28;20056;-82
2023/06/25 11:27:39;;;;;;;5.70;4.13;;;27.90;44.30;;;;;;5052621;28;20128;-83
2023/06/25 11:30:07;;;;;;;6.40;4.20;;;28.00;44.50;;;;;;5071792;28;20060;-85
2023/06/25 11:32:36;;;;;;;6.22;3.95;;;28.10;44.40;;;;;;5081501;28;20814;-83
2023/06/25 11:35:14;;;;;;;5.90;4.10;;;28.10;44.70;;;;;;5079973;28;20127;-83
2023/06/25 11:37:46;;;;;;;5.90;3.80;;;28.10;45.60;;;;;;5043666;28;20079;-84
2023/06/25 11:40:24;;;;;;;5.80;3.78;;;28.30;45.40;;;;;;5074802;28;20076;-81
2023/06/25 11:42:52;;;;;;;6.90;4.40;;;28.30;44.60;;;;;;5062998;28;20057;-82
2023/06/25 11:45:20;;;;;;;6.78;4.00;;;28.50;43.90;;;;;;5070356;28;20350;-85
2023/06/25 11:47:50;;;;;;;6.38;4.28;;;28.50;44.60;;;;;;5058953;28;20900;-81
2023/06/25 11:50:18;;;;;;;7.03;4.18;;;28.60;44.70;;;;;;5054789;28;20068;-82
2023/06/25 11:52:45;;;;;;;6.65;4.63;;;28.60;44.60;;;;;;5066018;28;20048;-83
2023/06/25 11:55:12;;;;;;;6.20;4.20;;;28.80;44.50;;;;;;5069276;28;20050;-83
2023/06/25 11:57:41;;;;;;;6.90;4.28;;;28.90;43.80;;;;;;5069320;28;20267;-81
2023/06/25 12:00:09;;;;;;;6.63;3.97;;;28.90;43.60;;;;;;5069547;28;20053;-82
2023/06/25 12:02:36;;;;;;;6.22;4.03;;;28.90;43.50;;;;;;5068946;28;20049;-84
2023/06/25 12:05:03;;;;;;;5.50;4.05;;;29.00;43.20;;;;;;5073979;28;21041;-83
2023/06/25 12:07:30;;;;;;;6.37;4.20;;;29.00;42.10;;;;;;5053732;28;20132;-84
2023/06/25 12:09:57;;;;;;;6.55;4.22;;;29.10;42.10;;;;;;5070223;28;20355;-85
2023/06/25 12:12:24;;;;;;;5.93;4.30;;;29.10;42.90;;;;;;5069304;28;20053;-85
2023/06/25 12:14:52;;;;;;;6.68;4.50;;;29.10;43.30;;;;;;5069767;28;20085;-84
2023/06/25 12:17:19;;;;;;;7.25;4.78;;;29.20;42.70;;;;;;5069113;28;21315;-85
2023/06/25 12:19:46;;;;;;;7.80;4.93;;;29.20;42.50;;;;;;5049911;28;20065;-84
2023/06/25 12:22:13;;;;;;;6.60;4.35;;;29.30;42.70;;;;;;5052850;28;20252;-84
2023/06/25 12:24:40;;;;;;;6.43;4.70;;;29.30;42.80;;;;;;5100990;28;20138;-82
2023/06/25 12:27:07;;;;;;;5.93;4.32;;;29.30;42.80;;;;;;5099196;27;20060;-82
2023/06/25 12:29:34;;;;;;;7.50;4.97;;;29.40;42.80;;;;;;5068949;28;20111;-85
2023/06/25 12:32:03;;;;;;;6.50;4.67;;;29.40;42.70;;;;;;5069084;28;20053;-84
2023/06/25 12:34:30;;;;;;;6.75;5.15;;;29.50;43.30;;;;;;5070785;28;20824;-85
2023/06/25 12:36:56;;;;;;;6.85;4.90;;;29.50;44.00;;;;;;5070012;28;20052;-83
2023/06/25 12:39:23;;;;;;;7.15;4.93;;;29.50;43.90;;;;;;5070263;28;20681;-81
2023/06/25 12:41:50;;;;;;;7.65;5.25;;;29.60;44.00;;;;;;5069611;28;20059;-81